YXDG weather

Dorrigo Helipad
Dorrigo, New South Wales, Australia

Public forecast

Using degrees Celsius for public forecast. Weather courtesy of forecast.io.

METAR (pilot weather report)

Closest report is Grafton Airport, 38.8 nm (71.8 km) NNE. Retrieved 2019/04/19 03:26 UTC (31 minutes ago):

YGFN 190326Z AUTO 19005KT 170V230 9999 // SCT025 SCT039 BKN070 22/19 Q1023

TAF (pilot weather forecast)

Forecast is more than 6 hours old.

Closest forecast is Taree Airport, 93.4 nm (173.0 km) S. Retrieved 2019/04/18 20:33 UTC (7 hours ago):

TAF YTRE 181902Z 1820/1908 22005KT 9999 -SHRA BKN030 FM190200 12008KT 9999 -SHRA SCT030 INTER 1820/1902 4000 SHRA BKN015